sensor_id;sensor_type;location;lat;lon;timestamp;pressure;altitude;pressure_sealevel;temperature;humidity
61436;BME280;47304;47.456;19.160;2022-12-29T00:00:29;100954.91;;;-0.61;75.09
61436;BME280;47304;47.456;19.160;2022-12-29T00:03:17;100958.67;;;-0.62;75.19
61436;BME280;47304;47.456;19.160;2022-12-29T00:05:45;100958.77;;;-0.64;75.16
61436;BME280;47304;47.456;19.160;2022-12-29T00:08:13;100951.92;;;-0.66;75.10
61436;BME280;47304;47.456;19.160;2022-12-29T00:10:40;100954.48;;;-0.69;74.91
61436;BME280;47304;47.456;19.160;2022-12-29T00:13:08;100959.64;;;-0.73;75.20
61436;BME280;47304;47.456;19.160;2022-12-29T00:15:36;100960.79;;;-0.77;75.29
61436;BME280;47304;47.456;19.160;2022-12-29T00:18:04;100967.39;;;-0.82;75.63
61436;BME280;47304;47.456;19.160;2022-12-29T00:20:37;100962.39;;;-0.86;75.76
61436;BME280;47304;47.456;19.160;2022-12-29T00:23:08;100963.54;;;-0.87;75.73
61436;BME280;47304;47.456;19.160;2022-12-29T00:25:35;100962.18;;;-0.86;75.86
61436;BME280;47304;47.456;19.160;2022-12-29T00:28:04;100956.27;;;-0.84;75.98
61436;BME280;47304;47.456;19.160;2022-12-29T00:30:35;100950.20;;;-0.82;75.84
61436;BME280;47304;47.456;19.160;2022-12-29T00:33:10;100951.18;;;-0.80;75.89
61436;BME280;47304;47.456;19.160;2022-12-29T00:35:51;100956.86;;;-0.80;75.95
61436;BME280;47304;47.456;19.160;2022-12-29T00:38:20;100951.63;;;-0.78;75.97
61436;BME280;47304;47.456;19.160;2022-12-29T00:40:48;100949.55;;;-0.78;75.87
61436;BME280;47304;47.456;19.160;2022-12-29T00:43:16;100949.39;;;-0.78;75.88
61436;BME280;47304;47.456;19.160;2022-12-29T00:45:44;100955.14;;;-0.80;76.12
61436;BME280;47304;47.456;19.160;2022-12-29T00:48:12;100953.83;;;-0.82;76.32
61436;BME280;47304;47.456;19.160;2022-12-29T00:50:40;100951.56;;;-0.82;76.35
61436;BME280;47304;47.456;19.160;2022-12-29T00:53:08;100952.27;;;-0.79;76.59
61436;BME280;47304;47.456;19.160;2022-12-29T00:55:36;100955.29;;;-0.77;76.44
61436;BME280;47304;47.456;19.160;2022-12-29T00:58:04;100952.77;;;-0.76;76.50
61436;BME280;47304;47.456;19.160;2022-12-29T01:00:32;100952.94;;;-0.73;76.54
61436;BME280;47304;47.456;19.160;2022-12-29T01:03:00;100953.73;;;-0.71;76.63
61436;BME280;47304;47.456;19.160;2022-12-29T01:05:28;100950.34;;;-0.70;76.52
61436;BME280;47304;47.456;19.160;2022-12-29T01:07:56;100953.89;;;-0.68;76.48
61436;BME280;47304;47.456;19.160;2022-12-29T01:10:23;100957.35;;;-0.68;76.50
61436;BME280;47304;47.456;19.160;2022-12-29T01:12:51;100956.71;;;-0.67;76.47
61436;BME280;47304;47.456;19.160;2022-12-29T01:15:19;100957.69;;;-0.68;76.26
61436;BME280;47304;47.456;19.160;2022-12-29T01:17:47;100954.12;;;-0.67;76.37
61436;BME280;47304;47.456;19.160;2022-12-29T01:20:14;100952.77;;;-0.66;75.98
61436;BME280;47304;47.456;19.160;2022-12-29T01:22:42;100947.64;;;-0.66;76.03
61436;BME280;47304;47.456;19.160;2022-12-29T01:25:10;100946.67;;;-0.64;76.08
61436;BME280;47304;47.456;19.160;2022-12-29T01:27:37;100950.91;;;-0.62;75.86
61436;BME280;47304;47.456;19.160;2022-12-29T01:30:05;100955.86;;;-0.60;75.64
61436;BME280;47304;47.456;19.160;2022-12-29T01:32:33;100952.19;;;-0.58;75.62
61436;BME280;47304;47.456;19.160;2022-12-29T01:35:03;100946.77;;;-0.57;75.38
61436;BME280;47304;47.456;19.160;2022-12-29T01:37:30;100943.73;;;-0.55;75.36
61436;BME280;47304;47.456;19.160;2022-12-29T01:39:58;100943.39;;;-0.55;75.43
61436;BME280;47304;47.456;19.160;2022-12-29T01:42:26;100941.48;;;-0.55;75.38
61436;BME280;47304;47.456;19.160;2022-12-29T01:44:55;100940.77;;;-0.56;75.42
61436;BME280;47304;47.456;19.160;2022-12-29T01:47:40;100934.50;;;-0.60;75.17
61436;BME280;47304;47.456;19.160;2022-12-29T01:50:13;100940.67;;;-0.64;75.53
61436;BME280;47304;47.456;19.160;2022-12-29T01:52:50;100943.33;;;-0.66;75.85
61436;BME280;47304;47.456;19.160;2022-12-29T01:55:18;100939.89;;;-0.69;75.96
61436;BME280;47304;47.456;19.160;2022-12-29T01:57:49;100938.74;;;-0.74;76.11
61436;BME280;47304;47.456;19.160;2022-12-29T02:00:19;100934.61;;;-0.78;76.20
61436;BME280;47304;47.456;19.160;2022-12-29T02:02:53;100933.19;;;-0.82;75.96
61436;BME280;47304;47.456;19.160;2022-12-29T02:05:39;100933.21;;;-0.84;75.94
61436;BME280;47304;47.456;19.160;2022-12-29T02:08:08;100930.52;;;-0.87;76.13
61436;BME280;47304;47.456;19.160;2022-12-29T02:10:37;100927.45;;;-0.89;75.84
61436;BME280;47304;47.456;19.160;2022-12-29T02:13:06;100927.94;;;-0.89;76.02
61436;BME280;47304;47.456;19.160;2022-12-29T02:16:00;100920.89;;;-0.92;75.94
61436;BME280;47304;47.456;19.160;2022-12-29T02:32:16;100917.92;;;-0.81;76.05
61436;BME280;47304;47.456;19.160;2022-12-29T02:40:34;100912.02;;;-0.75;75.85
61436;BME280;47304;47.456;19.160;2022-12-29T02:43:21;100915.36;;;-0.74;75.94
61436;BME280;47304;47.456;19.160;2022-12-29T02:49:15;100902.48;;;-0.73;75.77
61436;BME280;47304;47.456;19.160;2022-12-29T02:51:55;100894.45;;;-0.75;75.71
61436;BME280;47304;47.456;19.160;2022-12-29T02:54:25;100893.34;;;-0.77;75.79
61436;BME280;47304;47.456;19.160;2022-12-29T02:56:53;100894.47;;;-0.79;75.78
61436;BME280;47304;47.456;19.160;2022-12-29T02:59:21;100896.06;;;-0.81;75.79
61436;BME280;47304;47.456;19.160;2022-12-29T03:04:37;100902.50;;;-0.83;75.95
61436;BME280;47304;47.456;19.160;2022-12-29T03:07:20;100901.30;;;-0.86;75.92
61436;BME280;47304;47.456;19.160;2022-12-29T03:12:38;100885.27;;;-0.90;75.95
61436;BME280;47304;47.456;19.160;2022-12-29T03:15:13;100882.71;;;-0.92;75.92
61436;BME280;47304;47.456;19.160;2022-12-29T03:17:51;100880.75;;;-0.94;75.87
61436;BME280;47304;47.456;19.160;2022-12-29T03:20:32;100878.77;;;-0.92;76.06
61436;BME280;47304;47.456;19.160;2022-12-29T03:23:06;100880.91;;;-0.91;75.78
61436;BME280;47304;47.456;19.160;2022-12-29T03:25:39;100883.90;;;-0.90;75.81
61436;BME280;47304;47.456;19.160;2022-12-29T03:28:12;100881.55;;;-0.88;75.95
61436;BME280;47304;47.456;19.160;2022-12-29T03:30:42;100872.60;;;-0.86;76.13
61436;BME280;47304;47.456;19.160;2022-12-29T03:33:14;100869.38;;;-0.82;76.06
61436;BME280;47304;47.456;19.160;2022-12-29T03:35:46;100869.42;;;-0.77;76.09
61436;BME280;47304;47.456;19.160;2022-12-29T03:38:19;100860.93;;;-0.75;76.00
61436;BME280;47304;47.456;19.160;2022-12-29T03:40:53;100861.39;;;-0.73;75.86
61436;BME280;47304;47.456;19.160;2022-12-29T03:43:22;100854.20;;;-0.72;75.86
61436;BME280;47304;47.456;19.160;2022-12-29T03:45:50;100850.48;;;-0.71;75.82
61436;BME280;47304;47.456;19.160;2022-12-29T03:48:18;100852.25;;;-0.70;75.80
61436;BME280;47304;47.456;19.160;2022-12-29T03:50:46;100852.74;;;-0.70;75.63
61436;BME280;47304;47.456;19.160;2022-12-29T03:53:14;100851.27;;;-0.72;75.70
61436;BME280;47304;47.456;19.160;2022-12-29T03:55:41;100850.64;;;-0.74;75.80
61436;BME280;47304;47.456;19.160;2022-12-29T03:58:09;100848.33;;;-0.76;75.88
61436;BME280;47304;47.456;19.160;2022-12-29T04:00:37;100853.91;;;-0.78;75.88
61436;BME280;47304;47.456;19.160;2022-12-29T04:03:04;100856.77;;;-0.79;75.90
61436;BME280;47304;47.456;19.160;2022-12-29T04:05:32;100862.06;;;-0.80;75.86
61436;BME280;47304;47.456;19.160;2022-12-29T04:08:00;100867.49;;;-0.81;75.88
61436;BME280;47304;47.456;19.160;2022-12-29T04:10:28;100869.52;;;-0.82;75.89
61436;BME280;47304;47.456;19.160;2022-12-29T04:12:55;100865.40;;;-0.82;75.89
61436;BME280;47304;47.456;19.160;2022-12-29T04:15:23;100863.83;;;-0.79;75.73
61436;BME280;47304;47.456;19.160;2022-12-29T04:17:51;100858.02;;;-0.78;75.75
61436;BME280;47304;47.456;19.160;2022-12-29T04:20:18;100858.48;;;-0.76;75.76
61436;BME280;47304;47.456;19.160;2022-12-29T04:22:46;100859.25;;;-0.74;75.64
61436;BME280;47304;47.456;19.160;2022-12-29T04:25:14;100865.02;;;-0.76;75.72
61436;BME280;47304;47.456;19.160;2022-12-29T04:27:41;100874.44;;;-0.80;75.79
61436;BME280;47304;47.456;19.160;2022-12-29T04:30:10;100877.34;;;-0.84;75.87
61436;BME280;47304;47.456;19.160;2022-12-29T04:32:38;100877.73;;;-0.86;75.85
61436;BME280;47304;47.456;19.160;2022-12-29T04:35:06;100876.45;;;-0.88;75.68
61436;BME280;47304;47.456;19.160;2022-12-29T04:37:33;100869.94;;;-0.90;75.64
61436;BME280;47304;47.456;19.160;2022-12-29T04:40:01;100873.08;;;-0.92;75.63
61436;BME280;47304;47.456;19.160;2022-12-29T04:42:29;100871.16;;;-0.96;75.71
61436;BME280;47304;47.456;19.160;2022-12-29T04:44:57;100866.29;;;-1.00;75.79
61436;BME280;47304;47.456;19.160;2022-12-29T04:47:24;100865.83;;;-1.06;75.88
61436;BME280;47304;47.456;19.160;2022-12-29T04:49:52;100870.49;;;-1.12;75.92
61436;BME280;47304;47.456;19.160;2022-12-29T04:52:19;100863.60;;;-1.16;76.15
61436;BME280;47304;47.456;19.160;2022-12-29T04:54:47;100856.23;;;-1.18;76.30
61436;BME280;47304;47.456;19.160;2022-12-29T04:57:15;100856.02;;;-1.19;76.30
61436;BME280;47304;47.456;19.160;2022-12-29T04:59:42;100858.59;;;-1.19;76.22
61436;BME280;47304;47.456;19.160;2022-12-29T05:02:10;100865.77;;;-1.19;76.52
61436;BME280;47304;47.456;19.160;2022-12-29T05:04:38;100869.19;;;-1.20;76.56
61436;BME280;47304;47.456;19.160;2022-12-29T05:07:06;100870.86;;;-1.18;76.60
61436;BME280;47304;47.456;19.160;2022-12-29T05:09:34;100871.59;;;-1.14;76.68
61436;BME280;47304;47.456;19.160;2022-12-29T05:12:01;100873.98;;;-1.11;76.41
61436;BME280;47304;47.456;19.160;2022-12-29T05:14:29;100873.52;;;-1.07;76.42
61436;BME280;47304;47.456;19.160;2022-12-29T05:16:57;100868.66;;;-1.04;76.35
61436;BME280;47304;47.456;19.160;2022-12-29T05:19:24;100873.08;;;-1.02;76.42
61436;BME280;47304;47.456;19.160;2022-12-29T05:21:52;100869.08;;;-1.00;76.54
61436;BME280;47304;47.456;19.160;2022-12-29T05:24:20;100865.23;;;-0.98;76.50
61436;BME280;47304;47.456;19.160;2022-12-29T05:26:47;100864.05;;;-0.98;76.53
61436;BME280;47304;47.456;19.160;2022-12-29T05:29:15;100865.16;;;-0.99;76.29
61436;BME280;47304;47.456;19.160;2022-12-29T05:31:44;100863.51;;;-1.01;76.33
61436;BME280;47304;47.456;19.160;2022-12-29T05:34:12;100869.38;;;-1.04;76.31
61436;BME280;47304;47.456;19.160;2022-12-29T05:36:40;100863.56;;;-1.06;76.44
61436;BME280;47304;47.456;19.160;2022-12-29T05:39:08;100863.64;;;-1.08;76.36
61436;BME280;47304;47.456;19.160;2022-12-29T05:41:36;100858.45;;;-1.12;76.37
61436;BME280;47304;47.456;19.160;2022-12-29T05:44:03;100858.22;;;-1.13;76.41
61436;BME280;47304;47.456;19.160;2022-12-29T05:46:31;100856.05;;;-1.15;76.45
61436;BME280;47304;47.456;19.160;2022-12-29T05:48:59;100856.52;;;-1.19;76.52
61436;BME280;47304;47.456;19.160;2022-12-29T05:51:27;100856.48;;;-1.23;76.65
61436;BME280;47304;47.456;19.160;2022-12-29T05:53:55;100858.62;;;-1.28;76.79
61436;BME280;47304;47.456;19.160;2022-12-29T05:56:23;100853.85;;;-1.33;76.84
61436;BME280;47304;47.456;19.160;2022-12-29T05:58:51;100850.50;;;-1.35;76.92
61436;BME280;47304;47.456;19.160;2022-12-29T06:01:18;100845.14;;;-1.35;76.88
61436;BME280;47304;47.456;19.160;2022-12-29T06:03:46;100845.69;;;-1.35;76.78
61436;BME280;47304;47.456;19.160;2022-12-29T06:06:15;100842.73;;;-1.35;76.84
61436;BME280;47304;47.456;19.160;2022-12-29T06:08:42;100842.14;;;-1.36;76.80
61436;BME280;47304;47.456;19.160;2022-12-29T06:11:10;100841.20;;;-1.38;76.87
61436;BME280;47304;47.456;19.160;2022-12-29T06:13:38;100847.56;;;-1.41;77.06
61436;BME280;47304;47.456;19.160;2022-12-29T06:16:06;100848.20;;;-1.43;77.23
61436;BME280;47304;47.456;19.160;2022-12-29T06:18:34;100842.43;;;-1.44;77.46
61436;BME280;47304;47.456;19.160;2022-12-29T06:21:03;100843.35;;;-1.46;77.48
61436;BME280;47304;47.456;19.160;2022-12-29T06:23:31;100842.02;;;-1.48;77.65
61436;BME280;47304;47.456;19.160;2022-12-29T06:25:59;100844.98;;;-1.50;77.77
61436;BME280;47304;47.456;19.160;2022-12-29T06:28:26;100846.54;;;-1.50;78.02
61436;BME280;47304;47.456;19.160;2022-12-29T06:30:54;100850.55;;;-1.49;78.12
61436;BME280;47304;47.456;19.160;2022-12-29T06:33:22;100850.52;;;-1.50;78.09
61436;BME280;47304;47.456;19.160;2022-12-29T06:35:49;100854.11;;;-1.50;78.15
61436;BME280;47304;47.456;19.160;2022-12-29T06:38:17;100855.19;;;-1.49;78.11
61436;BME280;47304;47.456;19.160;2022-12-29T06:40:45;100858.84;;;-1.46;78.14
61436;BME280;47304;47.456;19.160;2022-12-29T06:43:12;100852.56;;;-1.41;77.95
61436;BME280;47304;47.456;19.160;2022-12-29T06:45:40;100857.77;;;-1.37;77.88
61436;BME280;47304;47.456;19.160;2022-12-29T06:48:08;100855.20;;;-1.34;77.83
61436;BME280;47304;47.456;19.160;2022-12-29T06:50:36;100858.86;;;-1.30;77.87
61436;BME280;47304;47.456;19.160;2022-12-29T06:53:04;100861.32;;;-1.25;77.79
61436;BME280;47304;47.456;19.160;2022-12-29T06:55:32;100864.73;;;-1.23;77.83
61436;BME280;47304;47.456;19.160;2022-12-29T06:57:59;100865.23;;;-1.20;77.90
61436;BME280;47304;47.456;19.160;2022-12-29T07:00:27;100873.48;;;-1.17;77.83
61436;BME280;47304;47.456;19.160;2022-12-29T07:02:55;100865.68;;;-1.15;77.71
61436;BME280;47304;47.456;19.160;2022-12-29T07:05:24;100861.85;;;-1.13;77.54
61436;BME280;47304;47.456;19.160;2022-12-29T07:07:52;100860.90;;;-1.08;77.64
61436;BME280;47304;47.456;19.160;2022-12-29T07:10:21;100866.41;;;-1.04;77.38
61436;BME280;47304;47.456;19.160;2022-12-29T07:12:49;100870.97;;;-1.03;77.33
61436;BME280;47304;47.456;19.160;2022-12-29T07:15:17;100873.41;;;-0.99;77.40
61436;BME280;47304;47.456;19.160;2022-12-29T07:17:44;100881.94;;;-0.94;77.40
61436;BME280;47304;47.456;19.160;2022-12-29T07:20:12;100885.80;;;-0.89;77.45
61436;BME280;47304;47.456;19.160;2022-12-29T07:22:39;100876.39;;;-0.85;77.34
61436;BME280;47304;47.456;19.160;2022-12-29T07:25:08;100884.96;;;-0.79;77.38
61436;BME280;47304;47.456;19.160;2022-12-29T07:27:36;100880.97;;;-0.73;77.31
61436;BME280;47304;47.456;19.160;2022-12-29T07:30:04;100891.81;;;-0.67;77.32
61436;BME280;47304;47.456;19.160;2022-12-29T07:32:33;100896.35;;;-0.59;77.14
61436;BME280;47304;47.456;19.160;2022-12-29T07:35:01;100890.39;;;-0.52;77.01
61436;BME280;47304;47.456;19.160;2022-12-29T07:37:29;100884.27;;;-0.43;76.96
61436;BME280;47304;47.456;19.160;2022-12-29T07:39:56;100879.60;;;-0.34;76.73
61436;BME280;47304;47.456;19.160;2022-12-29T07:42:24;100876.73;;;-0.26;76.69
61436;BME280;47304;47.456;19.160;2022-12-29T07:44:52;100873.91;;;-0.21;76.61
61436;BME280;47304;47.456;19.160;2022-12-29T07:47:20;100879.27;;;-0.13;76.51
61436;BME280;47304;47.456;19.160;2022-12-29T07:49:47;100888.15;;;-0.08;76.24
61436;BME280;47304;47.456;19.160;2022-12-29T07:52:15;100887.24;;;-0.02;76.08
61436;BME280;47304;47.456;19.160;2022-12-29T07:54:42;100887.91;;;0.05;75.76
61436;BME280;47304;47.456;19.160;2022-12-29T07:57:10;100883.99;;;0.09;75.85
61436;BME280;47304;47.456;19.160;2022-12-29T07:59:38;100881.40;;;0.16;75.65
61436;BME280;47304;47.456;19.160;2022-12-29T08:02:08;100883.04;;;0.25;75.72
61436;BME280;47304;47.456;19.160;2022-12-29T08:04:37;100884.02;;;0.34;75.24
61436;BME280;47304;47.456;19.160;2022-12-29T08:07:05;100882.73;;;0.43;75.21
61436;BME280;47304;47.456;19.160;2022-12-29T08:09:32;100883.75;;;0.57;75.15
61436;BME280;47304;47.456;19.160;2022-12-29T08:12:00;100881.06;;;0.69;74.83
61436;BME280;47304;47.456;19.160;2022-12-29T08:14:28;100878.08;;;0.79;74.62
61436;BME280;47304;47.456;19.160;2022-12-29T08:16:55;100875.60;;;0.93;74.41
61436;BME280;47304;47.456;19.160;2022-12-29T08:19:23;100870.38;;;0.99;74.04
61436;BME280;47304;47.456;19.160;2022-12-29T08:21:52;100871.36;;;1.13;73.87
61436;BME280;47304;47.456;19.160;2022-12-29T08:24:20;100877.45;;;1.10;73.69
61436;BME280;47304;47.456;19.160;2022-12-29T08:26:48;100875.09;;;1.12;73.52
61436;BME280;47304;47.456;19.160;2022-12-29T08:29:15;100869.69;;;1.18;73.36
61436;BME280;47304;47.456;19.160;2022-12-29T08:31:43;100868.25;;;1.32;73.09
61436;BME280;47304;47.456;19.160;2022-12-29T08:34:11;100869.58;;;1.42;72.99
61436;BME280;47304;47.456;19.160;2022-12-29T08:36:39;100865.92;;;1.42;72.92
61436;BME280;47304;47.456;19.160;2022-12-29T08:39:06;100855.10;;;1.39;72.59
61436;BME280;47304;47.456;19.160;2022-12-29T08:41:34;100862.88;;;1.39;72.65
61436;BME280;47304;47.456;19.160;2022-12-29T08:44:02;100857.40;;;1.36;72.45
61436;BME280;47304;47.456;19.160;2022-12-29T08:46:30;100857.20;;;1.36;72.56
61436;BME280;47304;47.456;19.160;2022-12-29T08:48:57;100857.23;;;1.37;72.50
61436;BME280;47304;47.456;19.160;2022-12-29T08:51:25;100851.42;;;1.38;72.55
61436;BME280;47304;47.456;19.160;2022-12-29T08:53:53;100858.60;;;1.40;72.74
61436;BME280;47304;47.456;19.160;2022-12-29T08:56:21;100858.52;;;1.43;72.58
61436;BME280;47304;47.456;19.160;2022-12-29T08:58:51;100850.64;;;1.44;72.46
61436;BME280;47304;47.456;19.160;2022-12-29T09:01:19;100858.77;;;1.48;72.38
61436;BME280;47304;47.456;19.160;2022-12-29T09:03:47;100860.32;;;1.52;72.35
61436;BME280;47304;47.456;19.160;2022-12-29T09:06:35;100847.24;;;1.61;72.66
61436;BME280;47304;47.456;19.160;2022-12-29T09:09:06;100845.48;;;1.64;72.47
61436;BME280;47304;47.456;19.160;2022-12-29T09:11:34;100842.29;;;1.62;72.49
61436;BME280;47304;47.456;19.160;2022-12-29T09:14:02;100830.46;;;1.56;72.43
61436;BME280;47304;47.456;19.160;2022-12-29T09:16:30;100838.08;;;1.53;72.63
61436;BME280;47304;47.456;19.160;2022-12-29T09:18:58;100837.10;;;1.54;72.76
61436;BME280;47304;47.456;19.160;2022-12-29T09:21:26;100830.25;;;1.56;72.59
61436;BME280;47304;47.456;19.160;2022-12-29T09:23:53;100829.75;;;1.56;72.81
61436;BME280;47304;47.456;19.160;2022-12-29T09:26:21;100822.05;;;1.58;72.84
61436;BME280;47304;47.456;19.160;2022-12-29T09:28:49;100827.73;;;1.61;72.76
61436;BME280;47304;47.456;19.160;2022-12-29T09:31:16;100831.41;;;1.66;72.74
61436;BME280;47304;47.456;19.160;2022-12-29T09:33:44;100819.58;;;1.72;72.53
61436;BME280;47304;47.456;19.160;2022-12-29T09:36:12;100815.78;;;1.77;72.49
61436;BME280;47304;47.456;19.160;2022-12-29T09:38:39;100818.02;;;1.80;72.60
61436;BME280;47304;47.456;19.160;2022-12-29T09:41:27;100819.59;;;1.85;72.64
61436;BME280;47304;47.456;19.160;2022-12-29T09:45:10;100806.29;;;1.90;72.45
61436;BME280;47304;47.456;19.160;2022-12-29T09:47:02;100799.83;;;1.92;72.22
61436;BME280;47304;47.456;19.160;2022-12-29T09:49:43;100803.14;;;1.93;72.52
61436;BME280;47304;47.456;19.160;2022-12-29T09:52:16;100797.58;;;1.96;72.28
61436;BME280;47304;47.456;19.160;2022-12-29T09:54:53;100789.58;;;1.95;72.35
61436;BME280;47304;47.456;19.160;2022-12-29T09:57:47;100789.20;;;1.94;72.43
61436;BME280;47304;47.456;19.160;2022-12-29T10:00:20;100794.74;;;1.95;72.77
61436;BME280;47304;47.456;19.160;2022-12-29T10:03:03;100802.38;;;1.95;72.74
61436;BME280;47304;47.456;19.160;2022-12-29T10:05:41;100795.20;;;1.97;72.71
61436;BME280;47304;47.456;19.160;2022-12-29T10:08:37;100790.63;;;1.99;72.63
61436;BME280;47304;47.456;19.160;2022-12-29T10:16:39;100783.63;;;2.18;72.70
61436;BME280;47304;47.456;19.160;2022-12-29T10:24:44;100763.65;;;2.38;71.84
61436;BME280;47304;47.456;19.160;2022-12-29T10:27:15;100766.24;;;2.39;71.83
61436;BME280;47304;47.456;19.160;2022-12-29T10:29:48;100761.18;;;2.41;72.01
61436;BME280;47304;47.456;19.160;2022-12-29T10:32:38;100762.22;;;2.46;72.09
61436;BME280;47304;47.456;19.160;2022-12-29T10:35:18;100764.46;;;2.50;71.92
61436;BME280;47304;47.456;19.160;2022-12-29T10:38:03;100765.26;;;2.53;72.05
61436;BME280;47304;47.456;19.160;2022-12-29T10:40:48;100766.61;;;2.57;71.96
61436;BME280;47304;47.456;19.160;2022-12-29T10:43:32;100771.64;;;2.62;71.76
61436;BME280;47304;47.456;19.160;2022-12-29T10:46:04;100770.88;;;2.69;71.45
61436;BME280;47304;47.456;19.160;2022-12-29T10:48:35;100767.33;;;2.76;71.22
61436;BME280;47304;47.456;19.160;2022-12-29T10:51:05;100760.38;;;2.89;71.04
61436;BME280;47304;47.456;19.160;2022-12-29T10:53:57;100756.58;;;3.13;70.53
61436;BME280;47304;47.456;19.160;2022-12-29T10:56:33;100748.55;;;3.51;70.10
61436;BME280;47304;47.456;19.160;2022-12-29T10:59:11;100736.46;;;4.34;68.92
61436;BME280;47304;47.456;19.160;2022-12-29T11:07:16;100715.56;;;10.31;58.02
61436;BME280;47304;47.456;19.160;2022-12-29T11:09:48;100713.48;;;12.62;53.60
61436;BME280;47304;47.456;19.160;2022-12-29T11:12:20;100708.18;;;14.45;50.16
61436;BME280;47304;47.456;19.160;2022-12-29T11:17:51;100705.56;;;15.66;42.89
61436;BME280;47304;47.456;19.160;2022-12-29T11:20:32;100708.85;;;15.23;42.48
61436;BME280;47304;47.456;19.160;2022-12-29T11:23:02;100714.17;;;14.48;42.78
61436;BME280;47304;47.456;19.160;2022-12-29T11:25:30;100708.73;;;13.93;43.37
61436;BME280;47304;47.456;19.160;2022-12-29T11:28:16;100704.29;;;14.15;43.90
61436;BME280;47304;47.456;19.160;2022-12-29T11:30:44;100696.44;;;14.88;42.27
61436;BME280;47304;47.456;19.160;2022-12-29T11:33:12;100690.65;;;15.71;41.03
61436;BME280;47304;47.456;19.160;2022-12-29T11:35:44;100695.31;;;16.56;40.15
61436;BME280;47304;47.456;19.160;2022-12-29T11:38:23;100683.66;;;17.23;38.95
61436;BME280;47304;47.456;19.160;2022-12-29T11:40:53;100675.80;;;17.99;37.36
61436;BME280;47304;47.456;19.160;2022-12-29T11:43:36;100672.75;;;18.83;36.44
61436;BME280;47304;47.456;19.160;2022-12-29T11:46:06;100673.25;;;19.75;34.90
61436;BME280;47304;47.456;19.160;2022-12-29T11:48:41;100664.64;;;20.59;34.19
61436;BME280;47304;47.456;19.160;2022-12-29T11:51:10;100664.77;;;20.89;31.71
61436;BME280;47304;47.456;19.160;2022-12-29T11:53:43;100662.77;;;20.56;31.84
61436;BME280;47304;47.456;19.160;2022-12-29T11:56:17;100657.67;;;20.59;31.56
61436;BME280;47304;47.456;19.160;2022-12-29T11:58:45;100653.52;;;20.80;30.94
61436;BME280;47304;47.456;19.160;2022-12-29T12:01:24;100649.84;;;21.42;30.86
61436;BME280;47304;47.456;19.160;2022-12-29T12:04:01;100648.56;;;22.19;29.80
61436;BME280;47304;47.456;19.160;2022-12-29T12:06:32;100649.11;;;22.51;29.06
61436;BME280;47304;47.456;19.160;2022-12-29T12:09:07;100648.25;;;22.34;29.07
61436;BME280;47304;47.456;19.160;2022-12-29T12:11:39;100655.34;;;21.47;28.86
61436;BME280;47304;47.456;19.160;2022-12-29T12:14:17;100656.29;;;20.63;29.68
61436;BME280;47304;47.456;19.160;2022-12-29T12:16:53;100656.14;;;19.93;29.78
61436;BME280;47304;47.456;19.160;2022-12-29T12:19:41;100658.34;;;19.25;30.73
61436;BME280;47304;47.456;19.160;2022-12-29T12:22:17;100664.53;;;18.54;31.93
61436;BME280;47304;47.456;19.160;2022-12-29T12:24:49;100661.96;;;17.64;32.56
61436;BME280;47304;47.456;19.160;2022-12-29T12:27:33;100663.60;;;16.59;33.74
61436;BME280;47304;47.456;19.160;2022-12-29T12:35:14;100644.73;;;15.04;36.33
61436;BME280;47304;47.456;19.160;2022-12-29T12:38:10;100650.80;;;14.56;37.07
61436;BME280;47304;47.456;19.160;2022-12-29T12:43:43;100649.95;;;14.54;38.16
61436;BME280;47304;47.456;19.160;2022-12-29T12:49:51;100621.41;;;14.82;37.68
61436;BME280;47304;47.456;19.160;2022-12-29T12:52:33;100606.28;;;15.25;37.16
61436;BME280;47304;47.456;19.160;2022-12-29T13:01:18;100602.58;;;15.47;36.24
61436;BME280;47304;47.456;19.160;2022-12-29T13:03:59;100608.91;;;15.16;36.45
61436;BME280;47304;47.456;19.160;2022-12-29T13:17:28;100647.92;;;10.44;44.01
61436;BME280;47304;47.456;19.160;2022-12-29T13:22:55;100646.17;;;9.22;46.87
61436;BME280;47304;47.456;19.160;2022-12-29T13:28:09;100645.20;;;8.24;49.43
61436;BME280;47304;47.456;19.160;2022-12-29T13:33:58;100644.91;;;7.46;51.76
61436;BME280;47304;47.456;19.160;2022-12-29T13:36:42;100643.79;;;7.11;52.68
61436;BME280;47304;47.456;19.160;2022-12-29T13:41:57;100663.73;;;6.53;54.47
61436;BME280;47304;47.456;19.160;2022-12-29T13:44:30;100663.55;;;6.27;55.18
61436;BME280;47304;47.456;19.160;2022-12-29T13:49:47;100667.20;;;5.83;56.61
61436;BME280;47304;47.456;19.160;2022-12-29T13:52:43;100667.86;;;5.67;57.21
61436;BME280;47304;47.456;19.160;2022-12-29T13:57:42;100666.85;;;5.33;58.40
61436;BME280;47304;47.456;19.160;2022-12-29T14:00:20;100668.90;;;5.18;58.99
61436;BME280;47304;47.456;19.160;2022-12-29T14:08:15;100666.91;;;4.89;60.17
61436;BME280;47304;47.456;19.160;2022-12-29T14:10:48;100669.89;;;4.77;60.56
61436;BME280;47304;47.456;19.160;2022-12-29T14:13:22;100672.75;;;4.68;60.76
61436;BME280;47304;47.456;19.160;2022-12-29T14:15:53;100675.72;;;4.56;61.29
61436;BME280;47304;47.456;19.160;2022-12-29T14:18:24;100675.98;;;4.47;61.34
61436;BME280;47304;47.456;19.160;2022-12-29T14:20:56;100674.30;;;4.38;61.61
61436;BME280;47304;47.456;19.160;2022-12-29T14:23:28;100674.23;;;4.29;61.99
61436;BME280;47304;47.456;19.160;2022-12-29T14:28:35;100676.89;;;4.14;62.98
61436;BME280;47304;47.456;19.160;2022-12-29T14:31:05;100675.59;;;4.05;63.02
61436;BME280;47304;47.456;19.160;2022-12-29T14:36:40;100671.67;;;3.80;63.88
61436;BME280;47304;47.456;19.160;2022-12-29T14:39:44;100673.64;;;3.70;64.17
61436;BME280;47304;47.456;19.160;2022-12-29T14:42:14;100667.52;;;3.63;64.44
61436;BME280;47304;47.456;19.160;2022-12-29T14:47:34;100669.52;;;3.50;64.86
61436;BME280;47304;47.456;19.160;2022-12-29T14:50:13;100679.38;;;3.39;65.43